La Grange, TX

11:40 AM CDT on April 28, 2017 (GMT -0500)
La Grange | | Change Station

Elev 325 ft 29.90 °N, 96.95 °W | Updated 5 minutes ago

Scattered Clouds
Scattered Clouds
85 °F
Feels Like 92 °F
N
14
Wind Variable Wind from South
Gusts 20 mph

Today
High -- | Low -- °F
--% Chance of Precip.
Yesterday
High -- | Low -- °F
Precip. -- in
Pressure 29.64 in
Visibility 7.0 miles
Clouds Scattered Clouds 2500 ft
Scattered Clouds 3100 ft
Heat Index 92 °F
Dew Point 73 °F
Humidity 67%
Rainfall 0.00 in
Snow Depth Not available.
6:47 AM 8:03 PM
Waxing Crescent, 7% visible
METAR K3T5 281635Z AUTO 17012G17KT 7SM SCT025 SCT031 30/23 A2964 RMK AO2 T02950228
Pressure 29.64 in
Visibility 7.0 miles
Clouds Scattered Clouds 2500 ft
Scattered Clouds 3100 ft
Heat Index 92 °F
Dew Point 73 °F
Humidity 67%
Rainfall 0.00 in
Snow Depth Not available.
6:47 AM 8:03 PM
Waxing Crescent, 7% visible
METAR K3T5 281635Z AUTO 17012G17KT 7SM SCT025 SCT031 30/23 A2964 RMK AO2 T02950228

Get Severe Weather Alerts

Thanks for signing up!

Be on the lookout for a verification email in your inbox.

You'll start receiving the daily forecast at 8 AM.

×

10-Day Weather Forecast

Almanac

Astronomy

Apr. 28, 2017 Rise Set
Actual Time
Civil Twilight
Nautical Twilight
Astronomical Twilight
Moon
Length of Visible Light
Length of Day
Tomorrow will be .
, % of the Moon is Illuminated

Today's Extremes

State Highs State Lows

Community

WunderPhotos

WunderBlog® & News

Nearby

Air Quality

  Air Quality AQ Index Pollutant
Not available.

Snow Depth

Station Depth Elevation

Earthquake Activity

City Distance Mag. Time & Date
Minimum magnitude displayed is 2.5.

Coastal Water Temperatures

Place Temperature

Stations

Nearby Weather Stations

Station Location Temp. Windchill Dew Point Humidity Wind Precip. Elev Updated Type
                   

Watches & Warnings

There are currently no watches in effect.